sensor_id;sensor_type;location;lat;lon;timestamp;P1;durP1;ratioP1;P2;durP2;ratioP2
77248;SDS011;66280;45.124;20.718;2023-07-20T00:24:33;9.82;;;5.53;;
77248;SDS011;66280;45.124;20.718;2023-07-20T00:54:34;8.63;;;6.83;;
77248;SDS011;66280;45.124;20.718;2023-07-20T01:04:38;10.37;;;5.60;;
77248;SDS011;66280;45.124;20.718;2023-07-20T01:14:39;7.40;;;6.63;;
77248;SDS011;66280;45.124;20.718;2023-07-20T01:35:15;12.10;;;7.70;;
77248;SDS011;66280;45.124;20.718;2023-07-20T01:45:16;10.00;;;7.20;;
77248;SDS011;66280;45.124;20.718;2023-07-20T02:55:20;12.15;;;7.60;;
77248;SDS011;66280;45.124;20.718;2023-07-20T03:05:21;11.43;;;7.43;;
77248;SDS011;66280;45.124;20.718;2023-07-20T03:55:24;13.03;;;9.73;;
77248;SDS011;66280;45.124;20.718;2023-07-20T04:15:26;11.23;;;8.37;;
77248;SDS011;66280;45.124;20.718;2023-07-20T04:25:26;12.80;;;8.45;;
77248;SDS011;66280;45.124;20.718;2023-07-20T04:36:13;10.85;;;9.30;;
77248;SDS011;66280;45.124;20.718;2023-07-20T04:45:59;16.13;;;9.50;;
77248;SDS011;66280;45.124;20.718;2023-07-20T04:55:59;11.07;;;6.33;;
77248;SDS011;66280;45.124;20.718;2023-07-20T05:06:01;8.30;;;5.43;;
77248;SDS011;66280;45.124;20.718;2023-07-20T05:16:01;10.23;;;5.68;;
77248;SDS011;66280;45.124;20.718;2023-07-20T05:26:03;11.93;;;6.17;;
77248;SDS011;66280;45.124;20.718;2023-07-20T05:36:04;9.07;;;5.40;;
77248;SDS011;66280;45.124;20.718;2023-07-20T05:46:04;5.83;;;4.60;;
77248;SDS011;66280;45.124;20.718;2023-07-20T05:56:05;7.83;;;5.10;;
77248;SDS011;66280;45.124;20.718;2023-07-20T06:06:06;8.67;;;5.37;;
77248;SDS011;66280;45.124;20.718;2023-07-20T06:16:06;12.70;;;9.13;;
77248;SDS011;66280;45.124;20.718;2023-07-20T06:26:07;13.27;;;9.30;;
77248;SDS011;66280;45.124;20.718;2023-07-20T06:36:08;15.20;;;7.87;;
77248;SDS011;66280;45.124;20.718;2023-07-20T06:46:08;9.43;;;6.87;;
77248;SDS011;66280;45.124;20.718;2023-07-20T06:56:09;14.63;;;10.80;;
77248;SDS011;66280;45.124;20.718;2023-07-20T07:06:10;18.03;;;12.63;;
77248;SDS011;66280;45.124;20.718;2023-07-20T08:36:16;12.75;;;11.07;;
77248;SDS011;66280;45.124;20.718;2023-07-20T08:46:16;16.70;;;8.77;;
77248;SDS011;66280;45.124;20.718;2023-07-20T08:56:17;13.43;;;9.67;;
77248;SDS011;66280;45.124;20.718;2023-07-20T09:06:19;15.77;;;12.60;;
77248;SDS011;66280;45.124;20.718;2023-07-20T09:16:19;13.73;;;9.90;;
77248;SDS011;66280;45.124;20.718;2023-07-20T09:26:20;13.83;;;10.00;;
77248;SDS011;66280;45.124;20.718;2023-07-20T09:36:21;15.25;;;10.05;;
77248;SDS011;66280;45.124;20.718;2023-07-20T09:46:22;10.97;;;9.80;;
77248;SDS011;66280;45.124;20.718;2023-07-20T09:56:22;11.93;;;9.50;;
77248;SDS011;66280;45.124;20.718;2023-07-20T10:06:24;12.60;;;10.40;;
77248;SDS011;66280;45.124;20.718;2023-07-20T10:16:29;13.00;;;9.70;;
77248;SDS011;66280;45.124;20.718;2023-07-20T10:26:32;10.57;;;9.37;;
77248;SDS011;66280;45.124;20.718;2023-07-20T10:36:33;12.30;;;9.20;;
77248;SDS011;66280;45.124;20.718;2023-07-20T10:46:44;11.23;;;9.97;;
77248;SDS011;66280;45.124;20.718;2023-07-20T10:56:49;10.70;;;9.60;;
77248;SDS011;66280;45.124;20.718;2023-07-20T11:06:56;8.63;;;7.80;;
77248;SDS011;66280;45.124;20.718;2023-07-20T11:16:56;9.57;;;7.22;;
77248;SDS011;66280;45.124;20.718;2023-07-20T11:27:11;13.50;;;9.10;;
77248;SDS011;66280;45.124;20.718;2023-07-20T11:37:12;8.90;;;8.03;;
77248;SDS011;66280;45.124;20.718;2023-07-20T11:47:13;10.47;;;8.40;;
77248;SDS011;66280;45.124;20.718;2023-07-20T11:57:19;7.63;;;6.80;;
77248;SDS011;66280;45.124;20.718;2023-07-20T12:07:21;9.02;;;8.23;;
77248;SDS011;66280;45.124;20.718;2023-07-20T12:17:22;7.83;;;6.90;;
77248;SDS011;66280;45.124;20.718;2023-07-20T12:27:22;7.03;;;6.37;;
77248;SDS011;66280;45.124;20.718;2023-07-20T12:37:28;7.83;;;7.23;;
77248;SDS011;66280;45.124;20.718;2023-07-20T12:47:29;8.47;;;7.07;;
77248;SDS011;66280;45.124;20.718;2023-07-20T12:57:29;7.70;;;7.00;;
77248;SDS011;66280;45.124;20.718;2023-07-20T13:07:30;10.20;;;6.23;;
77248;SDS011;66280;45.124;20.718;2023-07-20T13:17:36;6.60;;;5.90;;
77248;SDS011;66280;45.124;20.718;2023-07-20T13:27:38;9.30;;;6.70;;
77248;SDS011;66280;45.124;20.718;2023-07-20T13:37:38;7.80;;;6.37;;
77248;SDS011;66280;45.124;20.718;2023-07-20T13:47:39;9.20;;;8.33;;
77248;SDS011;66280;45.124;20.718;2023-07-20T13:57:39;7.10;;;6.40;;
77248;SDS011;66280;45.124;20.718;2023-07-20T14:07:40;7.00;;;6.25;;
77248;SDS011;66280;45.124;20.718;2023-07-20T14:17:41;8.23;;;6.20;;
77248;SDS011;66280;45.124;20.718;2023-07-20T14:27:41;8.60;;;6.47;;
77248;SDS011;66280;45.124;20.718;2023-07-20T14:37:42;9.13;;;6.53;;
77248;SDS011;66280;45.124;20.718;2023-07-20T14:47:43;7.83;;;7.03;;
77248;SDS011;66280;45.124;20.718;2023-07-20T14:57:43;9.37;;;8.40;;
77248;SDS011;66280;45.124;20.718;2023-07-20T15:07:44;10.40;;;8.05;;
77248;SDS011;66280;45.124;20.718;2023-07-20T15:17:44;7.57;;;6.43;;
77248;SDS011;66280;45.124;20.718;2023-07-20T15:27:45;7.28;;;6.53;;
77248;SDS011;66280;45.124;20.718;2023-07-20T15:37:47;8.57;;;6.97;;
77248;SDS011;66280;45.124;20.718;2023-07-20T15:47:49;7.53;;;6.80;;
77248;SDS011;66280;45.124;20.718;2023-07-20T15:57:49;6.80;;;6.10;;
77248;SDS011;66280;45.124;20.718;2023-07-20T16:07:50;7.93;;;5.73;;
77248;SDS011;66280;45.124;20.718;2023-07-20T16:17:51;8.43;;;6.33;;
77248;SDS011;66280;45.124;20.718;2023-07-20T16:27:52;12.10;;;6.68;;
77248;SDS011;66280;45.124;20.718;2023-07-20T16:37:53;10.93;;;6.73;;
77248;SDS011;66280;45.124;20.718;2023-07-20T16:47:55;7.33;;;6.30;;
77248;SDS011;66280;45.124;20.718;2023-07-20T16:57:56;7.80;;;7.00;;
77248;SDS011;66280;45.124;20.718;2023-07-20T17:07:57;8.30;;;7.40;;
77248;SDS011;66280;45.124;20.718;2023-07-20T17:17:57;10.10;;;5.95;;
77248;SDS011;66280;45.124;20.718;2023-07-20T17:27:58;8.97;;;6.93;;
77248;SDS011;66280;45.124;20.718;2023-07-20T17:37:59;9.93;;;7.03;;
77248;SDS011;66280;45.124;20.718;2023-07-20T17:47:59;8.50;;;7.60;;
77248;SDS011;66280;45.124;20.718;2023-07-20T17:58:00;8.50;;;7.60;;
77248;SDS011;66280;45.124;20.718;2023-07-20T18:08:00;10.32;;;7.03;;
77248;SDS011;66280;45.124;20.718;2023-07-20T18:18:01;8.73;;;6.30;;
77248;SDS011;66280;45.124;20.718;2023-07-20T18:28:02;8.80;;;6.40;;
77248;SDS011;66280;45.124;20.718;2023-07-20T18:38:05;7.90;;;7.10;;
77248;SDS011;66280;45.124;20.718;2023-07-20T18:48:06;8.00;;;7.20;;
77248;SDS011;66280;45.124;20.718;2023-07-20T18:58:06;7.30;;;6.60;;
77248;SDS011;66280;45.124;20.718;2023-07-20T19:08:07;9.65;;;7.30;;
77248;SDS011;66280;45.124;20.718;2023-07-20T19:18:07;11.82;;;7.07;;
77248;SDS011;66280;45.124;20.718;2023-07-20T19:28:08;8.27;;;6.70;;
77248;SDS011;66280;45.124;20.718;2023-07-20T19:38:10;7.57;;;6.27;;
77248;SDS011;66280;45.124;20.718;2023-07-20T19:48:11;11.07;;;7.57;;
77248;SDS011;66280;45.124;20.718;2023-07-20T19:58:12;8.37;;;7.43;;
77248;SDS011;66280;45.124;20.718;2023-07-20T20:08:12;10.20;;;8.30;;
77248;SDS011;66280;45.124;20.718;2023-07-20T20:18:13;9.40;;;6.30;;
77248;SDS011;66280;45.124;20.718;2023-07-20T20:28:14;8.30;;;6.03;;
77248;SDS011;66280;45.124;20.718;2023-07-20T20:38:14;7.00;;;6.37;;
77248;SDS011;66280;45.124;20.718;2023-07-20T20:48:15;6.30;;;5.30;;
77248;SDS011;66280;45.124;20.718;2023-07-20T20:58:15;8.43;;;5.57;;
77248;SDS011;66280;45.124;20.718;2023-07-20T21:08:16;7.03;;;5.73;;
77248;SDS011;66280;45.124;20.718;2023-07-20T21:18:17;10.52;;;5.65;;
77248;SDS011;66280;45.124;20.718;2023-07-20T21:28:18;7.68;;;4.95;;
77248;SDS011;66280;45.124;20.718;2023-07-20T21:38:18;8.70;;;6.00;;
77248;SDS011;66280;45.124;20.718;2023-07-20T21:48:19;15.77;;;7.33;;
77248;SDS011;66280;45.124;20.718;2023-07-20T21:58:19;13.45;;;7.35;;
77248;SDS011;66280;45.124;20.718;2023-07-20T22:08:20;11.93;;;8.37;;
77248;SDS011;66280;45.124;20.718;2023-07-20T22:18:21;8.77;;;5.17;;
77248;SDS011;66280;45.124;20.718;2023-07-20T22:28:22;6.07;;;4.50;;
77248;SDS011;66280;45.124;20.718;2023-07-20T22:49:25;5.67;;;3.87;;
77248;SDS011;66280;45.124;20.718;2023-07-20T22:59:25;8.07;;;3.73;;
77248;SDS011;66280;45.124;20.718;2023-07-20T23:09:26;8.45;;;3.70;;
77248;SDS011;66280;45.124;20.718;2023-07-20T23:19:27;4.50;;;3.73;;
77248;SDS011;66280;45.124;20.718;2023-07-20T23:29:27;20.35;;;3.60;;
77248;SDS011;66280;45.124;20.718;2023-07-20T23:39:28;10.07;;;3.67;;
77248;SDS011;66280;45.124;20.718;2023-07-20T23:49:29;4.47;;;3.60;;
77248;SDS011;66280;45.124;20.718;2023-07-20T23:59:29;6.78;;;4.13;;
